sensor_id;sensor_type;location;lat;lon;timestamp;P1;durP1;ratioP1;P2;durP2;ratioP2
23317;SDS011;11831;55.918;37.746;2024-01-06T01:53:23;18.57;;;9.77;;
23317;SDS011;11831;55.918;37.746;2024-01-06T01:55:50;17.70;;;9.23;;
23317;SDS011;11831;55.918;37.746;2024-01-06T01:58:16;17.50;;;8.50;;
23317;SDS011;11831;55.918;37.746;2024-01-06T02:00:42;17.65;;;9.70;;
23317;SDS011;11831;55.918;37.746;2024-01-06T02:03:09;19.25;;;9.60;;
23317;SDS011;11831;55.918;37.746;2024-01-06T02:05:35;25.75;;;11.05;;
23317;SDS011;11831;55.918;37.746;2024-01-06T02:08:01;18.17;;;9.00;;
23317;SDS011;11831;55.918;37.746;2024-01-06T02:10:27;20.95;;;9.65;;
23317;SDS011;11831;55.918;37.746;2024-01-06T02:12:54;19.00;;;10.20;;
23317;SDS011;11831;55.918;37.746;2024-01-06T02:15:21;26.10;;;10.70;;
23317;SDS011;11831;55.918;37.746;2024-01-06T02:17:47;19.40;;;10.45;;
23317;SDS011;11831;55.918;37.746;2024-01-06T02:20:13;25.75;;;11.90;;
23317;SDS011;11831;55.918;37.746;2024-01-06T02:22:40;26.45;;;11.30;;
23317;SDS011;11831;55.918;37.746;2024-01-06T02:25:06;20.60;;;11.00;;
23317;SDS011;11831;55.918;37.746;2024-01-06T02:27:38;17.15;;;9.75;;
23317;SDS011;11831;55.918;37.746;2024-01-06T02:30:05;20.70;;;10.55;;
23317;SDS011;11831;55.918;37.746;2024-01-06T02:32:32;26.05;;;10.50;;
23317;SDS011;11831;55.918;37.746;2024-01-06T02:34:58;18.60;;;9.70;;
23317;SDS011;11831;55.918;37.746;2024-01-06T02:37:24;24.10;;;11.25;;
23317;SDS011;11831;55.918;37.746;2024-01-06T02:39:50;27.30;;;12.20;;
23317;SDS011;11831;55.918;37.746;2024-01-06T02:42:16;26.95;;;12.50;;
23317;SDS011;11831;55.918;37.746;2024-01-06T02:44:42;24.87;;;11.93;;
23317;SDS011;11831;55.918;37.746;2024-01-06T02:47:09;23.50;;;12.60;;
23317;SDS011;11831;55.918;37.746;2024-01-06T02:49:34;26.55;;;12.30;;
23317;SDS011;11831;55.918;37.746;2024-01-06T02:52:00;23.85;;;10.90;;
23317;SDS011;11831;55.918;37.746;2024-01-06T02:54:26;22.95;;;10.60;;
23317;SDS011;11831;55.918;37.746;2024-01-06T02:56:52;20.05;;;10.50;;
23317;SDS011;11831;55.918;37.746;2024-01-06T02:59:18;19.77;;;9.47;;
23317;SDS011;11831;55.918;37.746;2024-01-06T03:01:44;20.43;;;9.83;;
23317;SDS011;11831;55.918;37.746;2024-01-06T03:04:10;18.20;;;9.40;;
23317;SDS011;11831;55.918;37.746;2024-01-06T03:06:36;19.00;;;10.05;;
23317;SDS011;11831;55.918;37.746;2024-01-06T03:09:02;17.63;;;8.90;;
23317;SDS011;11831;55.918;37.746;2024-01-06T03:11:29;21.50;;;9.65;;
23317;SDS011;11831;55.918;37.746;2024-01-06T03:13:55;19.40;;;9.70;;
23317;SDS011;11831;55.918;37.746;2024-01-06T03:16:21;23.25;;;10.05;;
23317;SDS011;11831;55.918;37.746;2024-01-06T03:18:47;18.23;;;9.00;;
23317;SDS011;11831;55.918;37.746;2024-01-06T03:21:16;16.43;;;8.93;;
23317;SDS011;11831;55.918;37.746;2024-01-06T03:23:42;16.77;;;8.53;;
23317;SDS011;11831;55.918;37.746;2024-01-06T03:26:08;17.20;;;8.97;;
23317;SDS011;11831;55.918;37.746;2024-01-06T03:28:34;18.07;;;9.53;;
23317;SDS011;11831;55.918;37.746;2024-01-06T03:31:00;21.07;;;10.40;;
23317;SDS011;11831;55.918;37.746;2024-01-06T03:33:27;20.80;;;11.07;;
23317;SDS011;11831;55.918;37.746;2024-01-06T03:35:53;20.75;;;10.75;;
23317;SDS011;11831;55.918;37.746;2024-01-06T03:38:18;25.73;;;11.17;;
23317;SDS011;11831;55.918;37.746;2024-01-06T03:40:45;20.63;;;10.07;;
23317;SDS011;11831;55.918;37.746;2024-01-06T03:43:11;24.85;;;11.55;;
23317;SDS011;11831;55.918;37.746;2024-01-06T03:45:37;24.70;;;10.30;;
23317;SDS011;11831;55.918;37.746;2024-01-06T03:48:03;24.87;;;11.63;;
23317;SDS011;11831;55.918;37.746;2024-01-06T03:50:29;20.33;;;10.57;;
23317;SDS011;11831;55.918;37.746;2024-01-06T03:52:55;24.85;;;11.25;;
23317;SDS011;11831;55.918;37.746;2024-01-06T03:55:21;23.40;;;11.83;;
23317;SDS011;11831;55.918;37.746;2024-01-06T03:57:47;26.07;;;12.70;;
23317;SDS011;11831;55.918;37.746;2024-01-06T04:00:14;22.50;;;10.73;;
23317;SDS011;11831;55.918;37.746;2024-01-06T04:02:40;25.87;;;12.03;;
23317;SDS011;11831;55.918;37.746;2024-01-06T04:05:06;27.30;;;13.05;;
23317;SDS011;11831;55.918;37.746;2024-01-06T04:07:32;23.60;;;10.80;;
23317;SDS011;11831;55.918;37.746;2024-01-06T04:09:58;19.45;;;10.40;;
23317;SDS011;11831;55.918;37.746;2024-01-06T04:12:24;17.10;;;9.65;;
23317;SDS011;11831;55.918;37.746;2024-01-06T04:14:50;17.00;;;9.45;;
23317;SDS011;11831;55.918;37.746;2024-01-06T04:17:17;17.43;;;9.77;;
23317;SDS011;11831;55.918;37.746;2024-01-06T04:19:43;23.35;;;11.45;;
23317;SDS011;11831;55.918;37.746;2024-01-06T04:22:09;23.50;;;10.80;;
23317;SDS011;11831;55.918;37.746;2024-01-06T04:24:35;18.75;;;10.05;;
23317;SDS011;11831;55.918;37.746;2024-01-06T04:27:03;19.80;;;9.25;;
23317;SDS011;11831;55.918;37.746;2024-01-06T04:29:30;16.60;;;8.85;;
23317;SDS011;11831;55.918;37.746;2024-01-06T04:31:56;17.10;;;8.70;;
23317;SDS011;11831;55.918;37.746;2024-01-06T04:34:22;23.15;;;8.80;;
23317;SDS011;11831;55.918;37.746;2024-01-06T04:36:48;17.50;;;8.70;;
23317;SDS011;11831;55.918;37.746;2024-01-06T04:39:15;15.23;;;9.23;;
23317;SDS011;11831;55.918;37.746;2024-01-06T04:41:41;19.65;;;8.85;;
23317;SDS011;11831;55.918;37.746;2024-01-06T04:44:07;16.45;;;8.60;;
23317;SDS011;11831;55.918;37.746;2024-01-06T04:46:33;16.00;;;8.50;;
23317;SDS011;11831;55.918;37.746;2024-01-06T04:48:59;18.73;;;8.90;;
23317;SDS011;11831;55.918;37.746;2024-01-06T04:51:26;15.90;;;9.25;;
23317;SDS011;11831;55.918;37.746;2024-01-06T04:53:52;20.20;;;9.25;;
23317;SDS011;11831;55.918;37.746;2024-01-06T04:56:18;19.55;;;9.05;;
23317;SDS011;11831;55.918;37.746;2024-01-06T04:58:44;18.80;;;8.70;;
23317;SDS011;11831;55.918;37.746;2024-01-06T05:01:10;19.45;;;9.95;;
23317;SDS011;11831;55.918;37.746;2024-01-06T05:03:37;18.00;;;9.40;;
23317;SDS011;11831;55.918;37.746;2024-01-06T05:06:03;19.25;;;8.95;;
23317;SDS011;11831;55.918;37.746;2024-01-06T05:08:29;17.93;;;9.50;;
23317;SDS011;11831;55.918;37.746;2024-01-06T05:10:56;20.85;;;8.85;;
23317;SDS011;11831;55.918;37.746;2024-01-06T05:13:22;15.57;;;8.50;;
23317;SDS011;11831;55.918;37.746;2024-01-06T05:15:48;16.35;;;8.30;;
23317;SDS011;11831;55.918;37.746;2024-01-06T05:18:15;18.65;;;8.90;;
23317;SDS011;11831;55.918;37.746;2024-01-06T05:20:41;19.40;;;8.85;;
23317;SDS011;11831;55.918;37.746;2024-01-06T05:23:07;17.20;;;8.53;;
23317;SDS011;11831;55.918;37.746;2024-01-06T05:25:33;19.70;;;8.95;;
23317;SDS011;11831;55.918;37.746;2024-01-06T05:27:59;18.60;;;8.80;;
23317;SDS011;11831;55.918;37.746;2024-01-06T05:30:25;18.70;;;9.03;;
23317;SDS011;11831;55.918;37.746;2024-01-06T05:32:51;17.87;;;8.67;;
23317;SDS011;11831;55.918;37.746;2024-01-06T05:35:17;19.45;;;9.10;;
23317;SDS011;11831;55.918;37.746;2024-01-06T05:37:43;21.30;;;8.45;;
23317;SDS011;11831;55.918;37.746;2024-01-06T05:40:09;19.65;;;8.65;;
23317;SDS011;11831;55.918;37.746;2024-01-06T05:42:37;15.40;;;8.50;;
23317;SDS011;11831;55.918;37.746;2024-01-06T05:45:03;21.30;;;9.85;;
23317;SDS011;11831;55.918;37.746;2024-01-06T05:47:30;20.80;;;9.25;;
23317;SDS011;11831;55.918;37.746;2024-01-06T05:49:56;20.57;;;8.83;;
23317;SDS011;11831;55.918;37.746;2024-01-06T05:52:23;13.90;;;8.05;;
23317;SDS011;11831;55.918;37.746;2024-01-06T05:54:49;14.60;;;7.80;;
23317;SDS011;11831;55.918;37.746;2024-01-06T05:57:15;17.85;;;8.25;;
23317;SDS011;11831;55.918;37.746;2024-01-06T05:59:41;17.20;;;8.97;;
23317;SDS011;11831;55.918;37.746;2024-01-06T06:02:07;17.45;;;8.35;;
23317;SDS011;11831;55.918;37.746;2024-01-06T06:04:34;17.50;;;8.70;;
23317;SDS011;11831;55.918;37.746;2024-01-06T06:07:00;15.85;;;8.80;;
23317;SDS011;11831;55.918;37.746;2024-01-06T06:09:26;17.95;;;8.85;;
23317;SDS011;11831;55.918;37.746;2024-01-06T06:11:54;18.70;;;9.00;;
23317;SDS011;11831;55.918;37.746;2024-01-06T06:14:20;18.80;;;8.55;;
23317;SDS011;11831;55.918;37.746;2024-01-06T06:16:47;19.35;;;8.90;;
23317;SDS011;11831;55.918;37.746;2024-01-06T06:19:13;15.15;;;8.80;;
23317;SDS011;11831;55.918;37.746;2024-01-06T06:21:39;19.55;;;9.05;;
23317;SDS011;11831;55.918;37.746;2024-01-06T06:24:05;21.85;;;9.60;;
23317;SDS011;11831;55.918;37.746;2024-01-06T06:26:32;22.55;;;10.15;;
23317;SDS011;11831;55.918;37.746;2024-01-06T06:28:58;20.35;;;10.25;;
23317;SDS011;11831;55.918;37.746;2024-01-06T06:31:24;18.60;;;9.45;;
23317;SDS011;11831;55.918;37.746;2024-01-06T06:33:50;20.50;;;10.20;;
23317;SDS011;11831;55.918;37.746;2024-01-06T06:36:17;18.45;;;10.25;;
23317;SDS011;11831;55.918;37.746;2024-01-06T06:38:43;19.07;;;10.70;;
23317;SDS011;11831;55.918;37.746;2024-01-06T06:41:09;19.00;;;9.73;;
23317;SDS011;11831;55.918;37.746;2024-01-06T06:43:35;21.00;;;9.90;;
23317;SDS011;11831;55.918;37.746;2024-01-06T06:46:01;19.03;;;9.60;;
23317;SDS011;11831;55.918;37.746;2024-01-06T06:48:28;18.50;;;9.05;;
23317;SDS011;11831;55.918;37.746;2024-01-06T06:50:54;14.97;;;8.73;;
23317;SDS011;11831;55.918;37.746;2024-01-06T06:53:20;18.70;;;9.25;;
23317;SDS011;11831;55.918;37.746;2024-01-06T06:55:47;18.03;;;9.63;;
23317;SDS011;11831;55.918;37.746;2024-01-06T06:58:13;16.40;;;8.75;;
23317;SDS011;11831;55.918;37.746;2024-01-06T07:00:39;17.40;;;8.80;;
23317;SDS011;11831;55.918;37.746;2024-01-06T07:03:05;20.97;;;10.10;;
23317;SDS011;11831;55.918;37.746;2024-01-06T07:05:31;19.97;;;10.13;;
23317;SDS011;11831;55.918;37.746;2024-01-06T07:07:59;19.80;;;9.05;;
23317;SDS011;11831;55.918;37.746;2024-01-06T07:10:26;19.60;;;10.93;;
23317;SDS011;11831;55.918;37.746;2024-01-06T07:12:52;20.60;;;11.25;;
23317;SDS011;11831;55.918;37.746;2024-01-06T07:15:18;21.20;;;9.90;;
23317;SDS011;11831;55.918;37.746;2024-01-06T07:17:44;21.80;;;9.80;;
23317;SDS011;11831;55.918;37.746;2024-01-06T07:20:11;16.35;;;9.70;;
23317;SDS011;11831;55.918;37.746;2024-01-06T07:22:37;19.45;;;9.95;;
23317;SDS011;11831;55.918;37.746;2024-01-06T07:25:03;21.37;;;10.57;;
23317;SDS011;11831;55.918;37.746;2024-01-06T07:27:30;20.33;;;10.10;;
23317;SDS011;11831;55.918;37.746;2024-01-06T07:29:56;16.25;;;9.15;;
23317;SDS011;11831;55.918;37.746;2024-01-06T07:32:22;17.60;;;8.90;;
23317;SDS011;11831;55.918;37.746;2024-01-06T07:34:49;17.95;;;8.70;;
23317;SDS011;11831;55.918;37.746;2024-01-06T07:37:15;17.05;;;9.35;;
23317;SDS011;11831;55.918;37.746;2024-01-06T07:39:41;23.40;;;8.90;;
23317;SDS011;11831;55.918;37.746;2024-01-06T07:42:07;20.65;;;9.70;;
23317;SDS011;11831;55.918;37.746;2024-01-06T07:44:34;22.05;;;9.65;;
23317;SDS011;11831;55.918;37.746;2024-01-06T07:47:00;17.15;;;9.30;;
23317;SDS011;11831;55.918;37.746;2024-01-06T07:49:28;19.35;;;9.25;;
23317;SDS011;11831;55.918;37.746;2024-01-06T07:51:54;22.45;;;10.30;;
23317;SDS011;11831;55.918;37.746;2024-01-06T07:54:20;20.15;;;9.55;;
23317;SDS011;11831;55.918;37.746;2024-01-06T07:56:46;17.60;;;9.45;;
23317;SDS011;11831;55.918;37.746;2024-01-06T07:59:13;18.40;;;9.00;;
23317;SDS011;11831;55.918;37.746;2024-01-06T08:01:39;18.00;;;9.00;;
23317;SDS011;11831;55.918;37.746;2024-01-06T08:04:08;19.80;;;10.60;;
23317;SDS011;11831;55.918;37.746;2024-01-06T08:06:35;19.25;;;9.75;;
23317;SDS011;11831;55.918;37.746;2024-01-06T08:09:01;18.70;;;9.65;;
23317;SDS011;11831;55.918;37.746;2024-01-06T08:11:27;17.70;;;9.40;;
23317;SDS011;11831;55.918;37.746;2024-01-06T08:13:53;17.35;;;9.50;;
23317;SDS011;11831;55.918;37.746;2024-01-06T08:16:20;19.60;;;9.55;;
23317;SDS011;11831;55.918;37.746;2024-01-06T08:18:46;17.60;;;10.10;;
23317;SDS011;11831;55.918;37.746;2024-01-06T08:21:12;17.30;;;9.65;;
23317;SDS011;11831;55.918;37.746;2024-01-06T08:23:38;18.75;;;9.80;;
23317;SDS011;11831;55.918;37.746;2024-01-06T08:26:04;17.85;;;9.20;;
23317;SDS011;11831;55.918;37.746;2024-01-06T08:28:31;20.55;;;11.20;;
23317;SDS011;11831;55.918;37.746;2024-01-06T08:30:57;18.35;;;10.00;;
23317;SDS011;11831;55.918;37.746;2024-01-06T08:33:23;21.25;;;10.55;;
23317;SDS011;11831;55.918;37.746;2024-01-06T08:35:49;19.10;;;10.43;;
23317;SDS011;11831;55.918;37.746;2024-01-06T08:38:15;21.37;;;10.83;;
23317;SDS011;11831;55.918;37.746;2024-01-06T08:40:41;21.15;;;11.40;;
23317;SDS011;11831;55.918;37.746;2024-01-06T08:43:07;22.13;;;10.80;;
23317;SDS011;11831;55.918;37.746;2024-01-06T08:45:34;20.37;;;11.07;;
23317;SDS011;11831;55.918;37.746;2024-01-06T08:48:00;19.83;;;11.27;;
23317;SDS011;11831;55.918;37.746;2024-01-06T08:50:27;21.50;;;12.10;;
23317;SDS011;11831;55.918;37.746;2024-01-06T08:52:53;23.70;;;11.75;;
23317;SDS011;11831;55.918;37.746;2024-01-06T08:55:20;19.45;;;10.20;;
23317;SDS011;11831;55.918;37.746;2024-01-06T08:57:46;18.35;;;10.25;;
23317;SDS011;11831;55.918;37.746;2024-01-06T09:00:13;19.80;;;10.77;;
23317;SDS011;11831;55.918;37.746;2024-01-06T09:02:39;20.23;;;10.13;;
23317;SDS011;11831;55.918;37.746;2024-01-06T09:05:05;17.50;;;10.45;;
23317;SDS011;11831;55.918;37.746;2024-01-06T09:07:31;17.40;;;9.57;;
23317;SDS011;11831;55.918;37.746;2024-01-06T09:09:57;18.50;;;9.57;;
23317;SDS011;11831;55.918;37.746;2024-01-06T09:12:23;20.60;;;10.20;;
23317;SDS011;11831;55.918;37.746;2024-01-06T09:14:49;19.65;;;10.05;;
23317;SDS011;11831;55.918;37.746;2024-01-06T09:17:15;19.57;;;9.90;;
23317;SDS011;11831;55.918;37.746;2024-01-06T09:19:42;20.33;;;10.17;;
23317;SDS011;11831;55.918;37.746;2024-01-06T09:22:08;21.13;;;10.37;;
23317;SDS011;11831;55.918;37.746;2024-01-06T09:24:34;22.00;;;10.43;;
23317;SDS011;11831;55.918;37.746;2024-01-06T09:27:00;20.63;;;10.27;;
23317;SDS011;11831;55.918;37.746;2024-01-06T09:29:26;19.87;;;10.48;;
23317;SDS011;11831;55.918;37.746;2024-01-06T09:31:53;22.77;;;10.33;;
23317;SDS011;11831;55.918;37.746;2024-01-06T09:34:19;16.93;;;9.47;;
23317;SDS011;11831;55.918;37.746;2024-01-06T09:36:45;18.58;;;10.05;;
23317;SDS011;11831;55.918;37.746;2024-01-06T09:39:12;19.67;;;10.53;;
23317;SDS011;11831;55.918;37.746;2024-01-06T09:41:38;22.08;;;10.95;;
23317;SDS011;11831;55.918;37.746;2024-01-06T09:44:04;20.50;;;11.23;;
23317;SDS011;11831;55.918;37.746;2024-01-06T09:46:31;20.83;;;11.68;;
23317;SDS011;11831;55.918;37.746;2024-01-06T09:48:58;18.55;;;10.23;;
23317;SDS011;11831;55.918;37.746;2024-01-06T09:51:24;20.27;;;11.30;;
23317;SDS011;11831;55.918;37.746;2024-01-06T09:53:59;20.62;;;11.10;;
23317;SDS011;11831;55.918;37.746;2024-01-06T09:56:26;20.85;;;10.93;;
23317;SDS011;11831;55.918;37.746;2024-01-06T09:58:52;22.48;;;10.88;;
23317;SDS011;11831;55.918;37.746;2024-01-06T10:01:19;17.23;;;9.67;;
23317;SDS011;11831;55.918;37.746;2024-01-06T10:03:46;16.90;;;10.60;;
23317;SDS011;11831;55.918;37.746;2024-01-06T10:06:15;22.73;;;11.63;;
23317;SDS011;11831;55.918;37.746;2024-01-06T10:08:48;20.13;;;10.73;;
23317;SDS011;11831;55.918;37.746;2024-01-06T10:11:14;20.25;;;10.52;;
23317;SDS011;11831;55.918;37.746;2024-01-06T10:13:41;16.10;;;10.17;;
23317;SDS011;11831;55.918;37.746;2024-01-06T10:16:07;19.48;;;10.13;;
23317;SDS011;11831;55.918;37.746;2024-01-06T10:18:33;19.67;;;10.17;;
23317;SDS011;11831;55.918;37.746;2024-01-06T10:21:04;22.37;;;11.18;;
23317;SDS011;11831;55.918;37.746;2024-01-06T10:23:31;17.62;;;10.90;;
23317;SDS011;11831;55.918;37.746;2024-01-06T10:25:58;19.43;;;10.93;;
23317;SDS011;11831;55.918;37.746;2024-01-06T10:28:24;20.37;;;10.90;;
23317;SDS011;11831;55.918;37.746;2024-01-06T10:30:54;24.10;;;12.20;;
23317;SDS011;11831;55.918;37.746;2024-01-06T10:33:21;21.35;;;12.48;;
23317;SDS011;11831;55.918;37.746;2024-01-06T10:35:49;20.10;;;11.60;;
23317;SDS011;11831;55.918;37.746;2024-01-06T10:38:15;20.10;;;10.20;;
23317;SDS011;11831;55.918;37.746;2024-01-06T10:41:03;24.87;;;12.30;;
23317;SDS011;11831;55.918;37.746;2024-01-06T10:43:33;24.33;;;11.82;;
23317;SDS011;11831;55.918;37.746;2024-01-06T10:46:04;21.70;;;11.95;;
23317;SDS011;11831;55.918;37.746;2024-01-06T10:48:34;20.83;;;12.33;;
23317;SDS011;11831;55.918;37.746;2024-01-06T10:51:01;24.87;;;12.90;;
23317;SDS011;11831;55.918;37.746;2024-01-06T10:53:33;23.27;;;13.48;;
23317;SDS011;11831;55.918;37.746;2024-01-06T10:56:03;21.03;;;12.00;;
23317;SDS011;11831;55.918;37.746;2024-01-06T10:58:30;21.60;;;12.17;;
23317;SDS011;11831;55.918;37.746;2024-01-06T11:00:57;23.83;;;13.15;;
23317;SDS011;11831;55.918;37.746;2024-01-06T11:03:23;24.27;;;12.40;;
23317;SDS011;11831;55.918;37.746;2024-01-06T11:05:50;20.93;;;11.93;;
23317;SDS011;11831;55.918;37.746;2024-01-06T11:08:19;22.63;;;11.90;;
23317;SDS011;11831;55.918;37.746;2024-01-06T11:10:47;21.70;;;11.10;;
23317;SDS011;11831;55.918;37.746;2024-01-06T11:13:14;22.17;;;11.73;;
23317;SDS011;11831;55.918;37.746;2024-01-06T11:15:46;23.30;;;11.00;;
23317;SDS011;11831;55.918;37.746;2024-01-06T11:26:32;24.10;;;12.57;;
23317;SDS011;11831;55.918;37.746;2024-01-06T11:29:00;23.10;;;12.97;;
23317;SDS011;11831;55.918;37.746;2024-01-06T11:31:32;20.97;;;12.10;;
23317;SDS011;11831;55.918;37.746;2024-01-06T11:34:11;24.43;;;12.90;;
23317;SDS011;11831;55.918;37.746;2024-01-06T11:36:38;24.67;;;12.63;;
23317;SDS011;11831;55.918;37.746;2024-01-06T11:39:05;27.77;;;13.40;;
23317;SDS011;11831;55.918;37.746;2024-01-06T11:41:50;25.23;;;12.67;;
23317;SDS011;11831;55.918;37.746;2024-01-06T11:44:23;26.73;;;11.90;;
23317;SDS011;11831;55.918;37.746;2024-01-06T11:46:49;26.83;;;12.40;;
23317;SDS011;11831;55.918;37.746;2024-01-06T11:49:15;27.90;;;13.23;;
23317;SDS011;11831;55.918;37.746;2024-01-06T11:51:42;23.38;;;13.25;;
23317;SDS011;11831;55.918;37.746;2024-01-06T11:54:09;23.77;;;12.23;;
23317;SDS011;11831;55.918;37.746;2024-01-06T11:56:35;23.95;;;13.23;;
23317;SDS011;11831;55.918;37.746;2024-01-06T11:59:01;22.98;;;12.00;;
23317;SDS011;11831;55.918;37.746;2024-01-06T12:01:28;24.03;;;12.80;;
23317;SDS011;11831;55.918;37.746;2024-01-06T12:04:01;26.33;;;13.02;;
23317;SDS011;11831;55.918;37.746;2024-01-06T12:06:29;23.43;;;12.80;;
23317;SDS011;11831;55.918;37.746;2024-01-06T12:09:08;24.10;;;13.03;;
23317;SDS011;11831;55.918;37.746;2024-01-06T12:11:34;21.58;;;12.50;;
23317;SDS011;11831;55.918;37.746;2024-01-06T12:14:02;26.47;;;13.37;;
23317;SDS011;11831;55.918;37.746;2024-01-06T12:16:28;26.52;;;14.35;;
23317;SDS011;11831;55.918;37.746;2024-01-06T12:18:56;27.53;;;15.10;;
23317;SDS011;11831;55.918;37.746;2024-01-06T12:21:25;30.17;;;15.83;;
23317;SDS011;11831;55.918;37.746;2024-01-06T12:23:51;26.03;;;14.10;;
23317;SDS011;11831;55.918;37.746;2024-01-06T12:26:19;25.33;;;13.27;;
23317;SDS011;11831;55.918;37.746;2024-01-06T12:28:45;25.90;;;14.63;;
23317;SDS011;11831;55.918;37.746;2024-01-06T12:31:12;27.93;;;15.33;;
23317;SDS011;11831;55.918;37.746;2024-01-06T12:33:41;29.00;;;15.50;;
23317;SDS011;11831;55.918;37.746;2024-01-06T12:36:08;29.00;;;16.03;;
23317;SDS011;11831;55.918;37.746;2024-01-06T12:38:34;27.20;;;15.57;;
23317;SDS011;11831;55.918;37.746;2024-01-06T12:41:01;31.67;;;15.70;;
23317;SDS011;11831;55.918;37.746;2024-01-06T12:43:28;26.63;;;15.53;;
23317;SDS011;11831;55.918;37.746;2024-01-06T12:45:54;27.17;;;15.20;;
23317;SDS011;11831;55.918;37.746;2024-01-06T12:48:23;27.67;;;15.47;;
23317;SDS011;11831;55.918;37.746;2024-01-06T12:50:49;27.60;;;15.47;;
23317;SDS011;11831;55.918;37.746;2024-01-06T12:53:15;30.73;;;15.67;;
23317;SDS011;11831;55.918;37.746;2024-01-06T12:55:43;25.27;;;14.77;;
23317;SDS011;11831;55.918;37.746;2024-01-06T12:58:09;27.87;;;14.20;;
23317;SDS011;11831;55.918;37.746;2024-01-06T13:00:37;25.80;;;14.33;;
23317;SDS011;11831;55.918;37.746;2024-01-06T13:03:04;26.93;;;15.83;;
23317;SDS011;11831;55.918;37.746;2024-01-06T13:05:30;22.87;;;14.57;;
23317;SDS011;11831;55.918;37.746;2024-01-06T13:07:56;29.47;;;15.37;;
23317;SDS011;11831;55.918;37.746;2024-01-06T13:10:23;28.93;;;15.80;;
23317;SDS011;11831;55.918;37.746;2024-01-06T13:12:49;26.43;;;14.57;;
23317;SDS011;11831;55.918;37.746;2024-01-06T13:15:16;25.30;;;14.33;;
23317;SDS011;11831;55.918;37.746;2024-01-06T13:17:42;28.93;;;14.60;;
23317;SDS011;11831;55.918;37.746;2024-01-06T13:20:08;27.80;;;15.03;;
23317;SDS011;11831;55.918;37.746;2024-01-06T13:22:34;22.90;;;13.20;;
23317;SDS011;11831;55.918;37.746;2024-01-06T13:25:01;30.77;;;15.57;;
23317;SDS011;11831;55.918;37.746;2024-01-06T13:27:27;29.83;;;14.97;;
23317;SDS011;11831;55.918;37.746;2024-01-06T13:29:53;24.80;;;13.23;;
23317;SDS011;11831;55.918;37.746;2024-01-06T13:32:20;27.00;;;13.53;;
23317;SDS011;11831;55.918;37.746;2024-01-06T13:34:47;27.63;;;13.43;;
23317;SDS011;11831;55.918;37.746;2024-01-06T13:37:13;27.33;;;14.23;;
23317;SDS011;11831;55.918;37.746;2024-01-06T13:39:40;26.10;;;13.57;;
23317;SDS011;11831;55.918;37.746;2024-01-06T13:42:06;21.90;;;12.47;;
23317;SDS011;11831;55.918;37.746;2024-01-06T13:44:32;22.73;;;11.60;;
23317;SDS011;11831;55.918;37.746;2024-01-06T13:46:59;24.87;;;13.40;;
23317;SDS011;11831;55.918;37.746;2024-01-06T13:49:26;24.73;;;12.87;;
23317;SDS011;11831;55.918;37.746;2024-01-06T13:51:53;20.43;;;11.43;;
23317;SDS011;11831;55.918;37.746;2024-01-06T13:54:19;22.43;;;11.93;;
23317;SDS011;11831;55.918;37.746;2024-01-06T13:56:46;19.13;;;11.20;;
23317;SDS011;11831;55.918;37.746;2024-01-06T13:59:12;24.20;;;12.00;;
23317;SDS011;11831;55.918;37.746;2024-01-06T14:01:38;23.63;;;12.97;;
23317;SDS011;11831;55.918;37.746;2024-01-06T14:04:05;23.07;;;13.20;;
23317;SDS011;11831;55.918;37.746;2024-01-06T14:06:31;24.33;;;13.77;;
23317;SDS011;11831;55.918;37.746;2024-01-06T14:08:57;21.73;;;11.83;;
23317;SDS011;11831;55.918;37.746;2024-01-06T14:11:23;23.63;;;11.60;;
23317;SDS011;11831;55.918;37.746;2024-01-06T14:13:52;22.53;;;11.93;;
23317;SDS011;11831;55.918;37.746;2024-01-06T14:16:18;23.37;;;11.57;;
23317;SDS011;11831;55.918;37.746;2024-01-06T14:18:44;26.67;;;12.43;;
23317;SDS011;11831;55.918;37.746;2024-01-06T14:21:10;22.27;;;12.33;;
23317;SDS011;11831;55.918;37.746;2024-01-06T14:23:36;25.30;;;12.50;;
23317;SDS011;11831;55.918;37.746;2024-01-06T14:26:03;25.63;;;12.27;;
23317;SDS011;11831;55.918;37.746;2024-01-06T14:28:29;22.97;;;11.83;;
23317;SDS011;11831;55.918;37.746;2024-01-06T14:30:58;23.63;;;11.97;;
23317;SDS011;11831;55.918;37.746;2024-01-06T14:33:24;22.33;;;11.93;;
23317;SDS011;11831;55.918;37.746;2024-01-06T14:35:50;21.57;;;11.67;;
23317;SDS011;11831;55.918;37.746;2024-01-06T14:38:17;25.03;;;12.20;;
23317;SDS011;11831;55.918;37.746;2024-01-06T14:40:43;27.15;;;13.23;;
23317;SDS011;11831;55.918;37.746;2024-01-06T14:43:09;22.87;;;12.57;;
23317;SDS011;11831;55.918;37.746;2024-01-06T14:45:36;20.97;;;11.40;;
23317;SDS011;11831;55.918;37.746;2024-01-06T14:48:02;22.57;;;11.93;;
23317;SDS011;11831;55.918;37.746;2024-01-06T14:50:28;26.70;;;12.63;;
23317;SDS011;11831;55.918;37.746;2024-01-06T14:52:55;23.57;;;12.63;;
23317;SDS011;11831;55.918;37.746;2024-01-06T14:55:21;23.15;;;12.85;;
23317;SDS011;11831;55.918;37.746;2024-01-06T14:57:47;27.00;;;13.73;;
23317;SDS011;11831;55.918;37.746;2024-01-06T15:00:13;22.57;;;13.00;;
23317;SDS011;11831;55.918;37.746;2024-01-06T15:02:40;27.30;;;13.98;;
23317;SDS011;11831;55.918;37.746;2024-01-06T15:05:06;25.80;;;13.88;;
23317;SDS011;11831;55.918;37.746;2024-01-06T15:07:32;25.83;;;12.90;;
23317;SDS011;11831;55.918;37.746;2024-01-06T15:09:59;23.93;;;13.53;;
23317;SDS011;11831;55.918;37.746;2024-01-06T15:12:26;23.20;;;13.03;;
23317;SDS011;11831;55.918;37.746;2024-01-06T15:14:52;27.23;;;14.27;;
23317;SDS011;11831;55.918;37.746;2024-01-06T15:17:19;25.12;;;13.30;;
23317;SDS011;11831;55.918;37.746;2024-01-06T15:19:46;27.93;;;14.67;;
23317;SDS011;11831;55.918;37.746;2024-01-06T15:22:12;29.20;;;14.35;;
23317;SDS011;11831;55.918;37.746;2024-01-06T15:24:39;26.43;;;14.50;;
23317;SDS011;11831;55.918;37.746;2024-01-06T15:27:05;29.12;;;14.85;;
23317;SDS011;11831;55.918;37.746;2024-01-06T15:29:31;29.45;;;15.15;;
23317;SDS011;11831;55.918;37.746;2024-01-06T15:31:57;23.70;;;13.40;;
23317;SDS011;11831;55.918;37.746;2024-01-06T15:34:23;25.45;;;13.48;;
23317;SDS011;11831;55.918;37.746;2024-01-06T15:36:50;27.50;;;15.15;;
23317;SDS011;11831;55.918;37.746;2024-01-06T15:39:16;26.77;;;15.10;;
23317;SDS011;11831;55.918;37.746;2024-01-06T15:41:42;30.35;;;15.07;;
23317;SDS011;11831;55.918;37.746;2024-01-06T15:44:09;27.27;;;13.87;;
23317;SDS011;11831;55.918;37.746;2024-01-06T15:46:35;30.10;;;16.43;;
23317;SDS011;11831;55.918;37.746;2024-01-06T15:49:02;31.03;;;15.70;;
23317;SDS011;11831;55.918;37.746;2024-01-06T15:51:28;29.50;;;15.80;;
23317;SDS011;11831;55.918;37.746;2024-01-06T15:53:54;32.67;;;15.10;;
23317;SDS011;11831;55.918;37.746;2024-01-06T15:56:20;27.37;;;15.07;;
23317;SDS011;11831;55.918;37.746;2024-01-06T15:58:47;33.27;;;16.13;;
23317;SDS011;11831;55.918;37.746;2024-01-06T16:01:14;29.33;;;16.37;;
23317;SDS011;11831;55.918;37.746;2024-01-06T16:03:40;29.50;;;16.20;;
23317;SDS011;11831;55.918;37.746;2024-01-06T16:06:06;32.47;;;15.77;;
23317;SDS011;11831;55.918;37.746;2024-01-06T16:08:33;32.23;;;16.60;;
23317;SDS011;11831;55.918;37.746;2024-01-06T16:10:59;30.37;;;14.80;;